createdAt,value
2023-04-12T00:01:40.404Z,15.75
2023-04-12T00:04:08.692Z,15.75
2023-04-12T00:06:36.313Z,15.76
2023-04-12T00:09:04.417Z,15.73
2023-04-12T00:11:32.042Z,15.68
2023-04-12T00:14:00.046Z,15.63
2023-04-12T00:16:28.170Z,15.61
2023-04-12T00:18:57.424Z,15.61
2023-04-12T00:21:28.654Z,15.61
2023-04-12T00:23:57.079Z,15.58
2023-04-12T00:26:25.612Z,15.51
2023-04-12T00:28:56.155Z,15.49
2023-04-12T00:31:24.012Z,15.49
2023-04-12T00:33:51.880Z,15.43
2023-04-12T00:36:19.490Z,15.45
2023-04-12T00:38:47.437Z,15.39
2023-04-12T00:41:15.445Z,15.35
2023-04-12T00:43:42.909Z,15.30
2023-04-12T00:46:09.860Z,15.23
2023-04-12T00:48:37.931Z,15.21
2023-04-12T00:51:07.059Z,15.20
2023-04-12T00:53:34.544Z,15.14
2023-04-12T00:56:03.690Z,15.15
2023-04-12T00:58:31.922Z,15.16
2023-04-12T01:01:00.396Z,15.15
2023-04-12T01:03:27.945Z,15.14
2023-04-12T01:06:22.833Z,15.15
2023-04-12T01:09:24.098Z,15.19
2023-04-12T01:12:09.161Z,15.17
2023-04-12T01:14:46.186Z,15.16
2023-04-12T01:17:14.651Z,15.17
2023-04-12T01:19:57.990Z,15.19
2023-04-12T01:22:38.802Z,15.13
2023-04-12T01:25:16.318Z,15.12
2023-04-12T01:27:47.913Z,15.12
2023-04-12T01:30:17.016Z,15.10
2023-04-12T01:32:45.371Z,15.07
2023-04-12T01:35:12.184Z,15.09
2023-04-12T01:37:40.396Z,15.05
2023-04-12T01:40:10.733Z,15.06
2023-04-12T01:42:38.451Z,15.04
2023-04-12T01:45:09.559Z,15.03
2023-04-12T01:47:37.234Z,15.06
2023-04-12T01:50:25.942Z,15.10
2023-04-12T01:53:16.862Z,15.09
2023-04-12T01:55:45.990Z,15.11
2023-04-12T01:58:12.825Z,15.12
2023-04-12T02:00:39.917Z,15.13
2023-04-12T02:03:07.566Z,15.18
2023-04-12T02:05:34.886Z,15.18
2023-04-12T02:08:04.249Z,15.18
2023-04-12T02:10:31.932Z,15.20
2023-04-12T02:13:02.511Z,15.20
2023-04-12T02:15:29.656Z,15.22
2023-04-12T02:17:59.736Z,15.21
2023-04-12T02:20:28.189Z,15.25
2023-04-12T02:22:55.884Z,15.27
2023-04-12T02:25:24.062Z,15.30
2023-04-12T02:27:52.083Z,15.33
2023-04-12T02:30:21.366Z,15.34
2023-04-12T02:32:48.677Z,15.37
2023-04-12T02:35:20.280Z,15.38
2023-04-12T02:37:48.719Z,15.42
2023-04-12T02:40:16.575Z,15.42
2023-04-12T02:42:44.596Z,15.44
2023-04-12T02:45:12.664Z,15.47
2023-04-12T02:47:41.295Z,15.48
2023-04-12T02:50:10.097Z,15.50
2023-04-12T02:52:38.412Z,15.54
2023-04-12T02:55:08.649Z,15.53
2023-04-12T02:57:37.076Z,15.54
2023-04-12T03:00:12.386Z,15.55
2023-04-12T03:02:40.277Z,15.55
2023-04-12T03:05:10.248Z,15.50
2023-04-12T03:07:38.327Z,15.47
2023-04-12T03:10:09.388Z,15.41
2023-04-12T03:12:37.404Z,15.35
2023-04-12T03:15:06.031Z,15.30
2023-04-12T03:17:33.971Z,15.22
2023-04-12T03:20:08.040Z,15.13
2023-04-12T03:22:39.621Z,15.05
2023-04-12T03:25:10.099Z,14.98
2023-04-12T03:27:37.566Z,14.91
2023-04-12T03:30:07.891Z,14.88
2023-04-12T03:32:35.717Z,14.79
2023-04-12T03:35:03.306Z,14.69
2023-04-12T03:37:31.876Z,14.62
2023-04-12T03:40:00.233Z,14.59
2023-04-12T03:42:33.643Z,14.56
2023-04-12T03:45:02.090Z,14.53
2023-04-12T03:47:30.071Z,14.54
2023-04-12T03:50:10.869Z,14.54
2023-04-12T03:52:39.997Z,14.53
2023-04-12T03:55:07.879Z,14.53
2023-04-12T03:57:35.976Z,14.49
2023-04-12T04:00:04.820Z,14.48
2023-04-12T04:02:32.535Z,14.46
2023-04-12T04:05:00.881Z,14.48
2023-04-12T04:07:28.956Z,14.46
2023-04-12T04:09:56.783Z,14.44
2023-04-12T04:12:24.427Z,14.43
2023-04-12T04:14:52.685Z,14.40
2023-04-12T04:17:20.724Z,14.40
2023-04-12T04:19:48.667Z,14.36
2023-04-12T04:22:17.899Z,14.36
2023-04-12T04:24:46.067Z,14.35
2023-04-12T04:27:15.685Z,14.34
2023-04-12T04:29:46.769Z,14.33
2023-04-12T04:32:17.610Z,14.31
2023-04-12T04:34:45.242Z,14.31
2023-04-12T04:37:13.378Z,14.34
2023-04-12T04:39:41.467Z,14.36
2023-04-12T04:42:09.779Z,14.40
2023-04-12T04:44:37.906Z,14.45
2023-04-12T04:47:07.036Z,14.49
2023-04-12T04:49:35.342Z,14.49
2023-04-12T04:52:03.097Z,14.53
2023-04-12T04:54:33.174Z,14.57
2023-04-12T04:57:01.742Z,14.59
2023-04-12T04:59:33.728Z,14.63
2023-04-12T05:02:01.469Z,14.68
2023-04-12T05:04:29.129Z,14.69
2023-04-12T05:06:57.382Z,14.71
2023-04-12T05:09:25.500Z,14.76
2023-04-12T05:11:53.700Z,14.78
2023-04-12T05:14:23.324Z,14.78
2023-04-12T05:16:52.273Z,14.81
2023-04-12T05:19:20.209Z,14.84
2023-04-12T05:21:48.164Z,14.81
2023-04-12T05:24:16.061Z,14.81
2023-04-12T05:26:44.155Z,14.83
2023-04-12T05:29:12.505Z,14.86
2023-04-12T05:31:39.990Z,14.89
2023-04-12T05:34:08.063Z,14.91
2023-04-12T05:36:36.392Z,14.93
2023-04-12T05:39:04.090Z,15.00
2023-04-12T05:41:31.890Z,15.06
2023-04-12T05:43:59.615Z,15.12
2023-04-12T05:46:27.989Z,15.17
2023-04-12T05:48:57.105Z,15.23
2023-04-12T05:51:37.820Z,15.23
2023-04-12T05:54:09.254Z,15.24
2023-04-12T05:56:37.076Z,15.26
2023-04-12T05:59:05.291Z,15.29
2023-04-12T06:01:34.317Z,15.31
2023-04-12T06:04:06.083Z,15.30
2023-04-12T06:06:33.748Z,15.32
2023-04-12T06:09:10.591Z,15.38
2023-04-12T06:11:39.320Z,15.50
2023-04-12T06:14:11.665Z,15.63
2023-04-12T06:16:41.957Z,15.71
2023-04-12T06:19:11.244Z,15.84
2023-04-12T06:21:38.728Z,15.86
2023-04-12T06:24:08.872Z,15.88
2023-04-12T06:26:39.629Z,15.91
2023-04-12T06:29:08.070Z,15.97
2023-04-12T06:31:35.437Z,15.99
2023-04-12T06:34:04.627Z,16.03
2023-04-12T06:36:32.654Z,16.08
2023-04-12T06:39:00.693Z,16.10
2023-04-12T06:41:28.873Z,16.15
2023-04-12T06:43:56.968Z,16.25
2023-04-12T06:46:28.582Z,16.30
2023-04-12T06:48:56.723Z,16.31
2023-04-12T06:51:24.520Z,16.31
2023-04-12T06:53:52.533Z,16.29
2023-04-12T06:56:20.406Z,16.34
2023-04-12T06:58:48.319Z,16.33
2023-04-12T07:01:16.306Z,16.35
2023-04-12T07:03:44.206Z,16.33
2023-04-12T07:06:24.214Z,16.33
2023-04-12T07:08:53.698Z,16.27
2023-04-12T07:11:25.343Z,16.31
2023-04-12T07:13:53.057Z,16.31
2023-04-12T07:16:20.906Z,16.32
2023-04-12T07:18:49.615Z,16.35
2023-04-12T07:21:18.030Z,16.33
2023-04-12T07:23:46.904Z,16.37
2023-04-12T07:26:15.182Z,16.40
2023-04-12T07:28:42.976Z,16.39
2023-04-12T07:31:11.123Z,16.42
2023-04-12T07:33:40.700Z,16.52
2023-04-12T07:36:12.404Z,16.54
2023-04-12T07:38:40.149Z,16.60
2023-04-12T07:41:08.317Z,16.66
2023-04-12T07:43:36.054Z,16.69
2023-04-12T07:46:08.001Z,16.65
2023-04-12T07:48:36.250Z,16.77
2023-04-12T07:51:05.175Z,16.87
2023-04-12T07:53:33.947Z,16.94
2023-04-12T07:56:04.479Z,17.09
2023-04-12T07:58:32.527Z,17.16
2023-04-12T08:01:01.442Z,17.29
2023-04-12T08:03:29.301Z,17.36
2023-04-12T08:05:57.103Z,17.38
2023-04-12T08:08:27.490Z,17.44
2023-04-12T08:10:58.860Z,17.58
2023-04-12T08:13:27.349Z,17.67
2023-04-12T08:15:54.965Z,17.74
2023-04-12T08:18:23.071Z,17.75
2023-04-12T08:20:51.466Z,17.74
2023-04-12T08:23:19.494Z,17.68
2023-04-12T08:25:47.193Z,17.65
2023-04-12T08:28:14.920Z,17.63
2023-04-12T08:30:43.384Z,17.59
2023-04-12T08:33:10.919Z,17.60
2023-04-12T08:35:40.078Z,17.62
2023-04-12T08:38:11.931Z,17.68
2023-04-12T08:40:41.364Z,17.74
2023-04-12T08:43:12.227Z,17.73
2023-04-12T08:45:40.459Z,17.77
2023-04-12T08:48:11.682Z,17.81
2023-04-12T08:50:39.726Z,17.82
2023-04-12T08:53:07.503Z,17.93
2023-04-12T08:55:39.794Z,18.08
2023-04-12T08:58:08.079Z,18.07
2023-04-12T09:00:35.582Z,18.12
2023-04-12T09:03:03.799Z,18.23
2023-04-12T09:05:32.227Z,18.22
2023-04-12T09:08:02.341Z,18.11
2023-04-12T09:10:36.913Z,18.16
2023-04-12T09:13:06.042Z,18.11
2023-04-12T09:15:34.956Z,18.15
2023-04-12T09:18:06.871Z,18.15
2023-04-12T09:20:35.138Z,18.08
2023-04-12T09:23:14.094Z,18.04
2023-04-12T09:25:45.330Z,18.09
2023-04-12T09:28:27.769Z,18.17
2023-04-12T09:30:55.779Z,18.19
2023-04-12T09:33:40.582Z,18.39
2023-04-12T09:36:17.460Z,18.72
2023-04-12T09:39:05.258Z,19.05
2023-04-12T09:41:33.129Z,19.32
2023-04-12T09:44:01.183Z,19.45
2023-04-12T09:46:28.623Z,19.53
2023-04-12T09:48:59.670Z,19.54
2023-04-12T09:51:53.985Z,19.58
2023-04-12T09:54:22.102Z,19.53
2023-04-12T09:56:50.073Z,19.50
2023-04-12T09:59:18.021Z,19.50
2023-04-12T10:01:45.152Z,19.53
2023-04-12T10:04:12.945Z,19.49
2023-04-12T10:06:41.794Z,19.41
2023-04-12T10:09:09.210Z,19.35
2023-04-12T10:11:37.727Z,19.36
2023-04-12T10:14:05.681Z,19.30
2023-04-12T10:16:34.811Z,19.30
2023-04-12T10:19:03.068Z,19.33
2023-04-12T10:21:34.151Z,19.37
2023-04-12T10:24:02.450Z,19.48
2023-04-12T10:26:30.371Z,19.53
2023-04-12T10:29:26.023Z,19.53
2023-04-12T10:32:26.764Z,19.47
2023-04-12T10:34:58.581Z,19.55
2023-04-12T10:38:13.290Z,19.50
2023-04-12T10:40:41.894Z,19.45
2023-04-12T10:43:26.687Z,19.45
2023-04-12T10:45:54.155Z,19.52
2023-04-12T10:48:32.782Z,19.59
2023-04-12T10:51:18.017Z,19.39
2023-04-12T10:53:46.963Z,19.39
2023-04-12T10:56:32.853Z,19.38
2023-04-12T10:59:04.341Z,19.37
2023-04-12T11:01:31.677Z,19.32
2023-04-12T11:04:25.783Z,19.33
2023-04-12T11:06:53.820Z,19.34
2023-04-12T11:09:42.701Z,19.34
2023-04-12T11:12:15.181Z,19.36
2023-04-12T11:14:51.894Z,19.38
2023-04-12T11:17:18.651Z,19.41
2023-04-12T11:19:49.957Z,19.55
2023-04-12T11:22:18.051Z,19.50
2023-04-12T11:24:46.634Z,19.52
2023-04-12T11:27:13.785Z,19.45
2023-04-12T11:29:41.473Z,19.46
2023-04-12T11:32:14.652Z,19.47
2023-04-12T11:34:43.541Z,19.61
2023-04-12T11:37:11.277Z,19.72
2023-04-12T11:39:49.703Z,19.78
2023-04-12T11:42:20.691Z,19.94
2023-04-12T11:44:57.098Z,20.13
2023-04-12T11:47:27.094Z,20.27
2023-04-12T11:49:58.970Z,20.39
2023-04-12T11:52:33.942Z,20.35
2023-04-12T11:55:05.246Z,20.46
2023-04-12T11:57:32.801Z,20.55
2023-04-12T12:00:00.879Z,20.76
2023-04-12T12:02:41.082Z,20.92
2023-04-12T12:05:14.843Z,21.13
2023-04-12T12:07:42.604Z,21.29
2023-04-12T12:10:14.612Z,21.41
2023-04-12T12:12:48.512Z,21.43
2023-04-12T12:15:21.621Z,21.50
2023-04-12T12:17:52.644Z,21.56
2023-04-12T12:20:21.489Z,21.76
2023-04-12T12:22:49.654Z,21.84
2023-04-12T12:25:20.843Z,21.85
2023-04-12T12:27:50.452Z,21.76
2023-04-12T12:30:18.218Z,21.78
2023-04-12T12:32:46.182Z,21.80
2023-04-12T12:35:14.121Z,21.85
2023-04-12T12:37:52.488Z,21.83
2023-04-12T12:40:26.425Z,21.82
2023-04-12T12:42:55.562Z,21.92
2023-04-12T12:45:24.394Z,22.00
2023-04-12T12:48:02.928Z,21.96
2023-04-12T12:50:34.808Z,21.84
2023-04-12T12:53:02.326Z,21.69
2023-04-12T12:55:30.658Z,21.60
2023-04-12T12:58:06.609Z,21.50
2023-04-12T13:00:35.890Z,21.33
2023-04-12T13:03:04.267Z,21.29
2023-04-12T13:05:32.631Z,21.36
2023-04-12T13:08:00.531Z,21.33
2023-04-12T13:10:31.345Z,21.32
2023-04-12T13:12:59.030Z,21.14
2023-04-12T13:15:27.092Z,21.22
2023-04-12T13:17:54.514Z,21.22
2023-04-12T13:20:23.195Z,21.18
2023-04-12T13:22:51.619Z,21.18
2023-04-12T13:25:22.617Z,21.00
2023-04-12T13:27:50.686Z,20.81
2023-04-12T13:30:22.008Z,20.63
2023-04-12T13:32:49.746Z,20.52
2023-04-12T13:35:17.782Z,20.49
2023-04-12T13:37:45.318Z,20.45
2023-04-12T13:40:13.564Z,20.29
2023-04-12T13:42:41.531Z,20.21
2023-04-12T13:45:12.263Z,20.06
2023-04-12T13:47:39.448Z,20.02
2023-04-12T13:50:10.156Z,19.89
2023-04-12T13:52:38.506Z,19.83
2023-04-12T13:55:08.526Z,19.74
2023-04-12T13:57:36.596Z,19.62
2023-04-12T14:00:05.122Z,19.57
2023-04-12T14:02:33.639Z,19.50
2023-04-12T14:05:01.858Z,19.39
2023-04-12T14:07:29.649Z,19.28
2023-04-12T14:10:00.306Z,19.24
2023-04-12T14:12:28.345Z,19.21
2023-04-12T14:14:55.907Z,19.14
2023-04-12T14:17:23.673Z,19.08
2023-04-12T14:19:51.255Z,18.99
2023-04-12T14:22:18.896Z,19.03
2023-04-12T14:24:46.689Z,19.04
2023-04-12T14:27:15.374Z,19.07
2023-04-12T14:29:45.425Z,19.06
2023-04-12T14:32:13.078Z,19.07
2023-04-12T14:34:42.970Z,18.96
2023-04-12T14:37:13.986Z,18.97
2023-04-12T14:39:41.843Z,19.02
2023-04-12T14:42:09.788Z,19.05
2023-04-12T14:44:37.546Z,19.10
2023-04-12T14:47:05.729Z,19.17
2023-04-12T14:49:34.037Z,19.21
2023-04-12T14:52:02.168Z,19.13
2023-04-12T14:54:30.424Z,19.14
2023-04-12T14:56:58.348Z,19.09
2023-04-12T14:59:27.588Z,19.03
2023-04-12T15:01:55.453Z,18.97
2023-04-12T15:04:23.436Z,18.91
2023-04-12T15:06:51.624Z,18.90
2023-04-12T15:09:19.738Z,18.78
2023-04-12T15:11:49.563Z,18.76
2023-04-12T15:14:20.735Z,18.81
2023-04-12T15:16:52.193Z,18.83
2023-04-12T15:19:23.063Z,18.85
2023-04-12T15:21:57.595Z,18.85
2023-04-12T15:24:25.899Z,18.77
2023-04-12T15:26:53.564Z,18.87
2023-04-12T15:29:22.853Z,18.78
2023-04-12T15:31:50.861Z,18.77
2023-04-12T15:34:18.574Z,18.76
2023-04-12T15:36:46.364Z,18.65
2023-04-12T15:39:15.225Z,18.62
2023-04-12T15:41:43.507Z,18.59
2023-04-12T15:44:14.487Z,18.56
2023-04-12T15:46:43.487Z,18.55
2023-04-12T15:49:11.186Z,18.58
2023-04-12T15:51:38.941Z,18.59
2023-04-12T15:54:07.127Z,18.59
2023-04-12T15:56:35.603Z,18.52
2023-04-12T15:59:03.265Z,18.49
2023-04-12T16:01:30.967Z,18.50
2023-04-12T16:03:58.774Z,18.53
2023-04-12T16:06:26.783Z,18.49
2023-04-12T16:08:54.817Z,18.46
2023-04-12T16:11:23.799Z,18.43
2023-04-12T16:13:53.148Z,18.39
2023-04-12T16:16:23.324Z,18.38
2023-04-12T16:18:52.851Z,18.37
2023-04-12T16:21:20.719Z,18.38
2023-04-12T16:23:49.064Z,18.31
2023-04-12T16:26:22.084Z,18.28
2023-04-12T16:29:14.098Z,18.22
2023-04-12T16:31:42.445Z,18.11
2023-04-12T16:34:11.230Z,18.09
2023-04-12T16:36:39.395Z,18.04
2023-04-12T16:39:07.388Z,18.00
2023-04-12T16:41:35.562Z,17.92
2023-04-12T16:44:03.468Z,17.88
2023-04-12T16:46:31.664Z,17.90
2023-04-12T16:48:59.614Z,17.86
2023-04-12T16:51:37.153Z,17.80
2023-04-12T16:54:05.845Z,17.74
2023-04-12T16:56:33.422Z,17.69
2023-04-12T16:59:01.221Z,17.66
2023-04-12T17:01:29.054Z,17.69
2023-04-12T17:03:58.288Z,17.67
2023-04-12T17:06:28.092Z,17.66
2023-04-12T17:08:56.487Z,17.69
2023-04-12T17:11:24.427Z,17.69
2023-04-12T17:13:52.717Z,17.73
2023-04-12T17:16:20.927Z,17.74
2023-04-12T17:18:49.056Z,17.74
2023-04-12T17:21:17.358Z,17.70
2023-04-12T17:23:45.332Z,17.68
2023-04-12T17:26:13.361Z,17.66
2023-04-12T17:28:41.674Z,17.63
2023-04-12T17:31:10.201Z,17.65
2023-04-12T17:33:37.806Z,17.62
2023-04-12T17:36:11.347Z,17.59
2023-04-12T17:38:39.580Z,17.58
2023-04-12T17:41:09.759Z,17.52
2023-04-12T17:43:37.841Z,17.50
2023-04-12T17:46:07.319Z,17.46
2023-04-12T17:48:35.135Z,17.43
2023-04-12T17:51:03.275Z,17.38
2023-04-12T17:53:31.143Z,17.35
2023-04-12T17:55:59.316Z,17.33
2023-04-12T17:58:27.863Z,17.36
2023-04-12T18:00:55.374Z,17.33
2023-04-12T18:03:23.372Z,17.29
2023-04-12T18:05:50.988Z,17.24
2023-04-12T18:08:19.135Z,17.21
2023-04-12T18:10:47.450Z,17.19
2023-04-12T18:13:15.591Z,17.18
2023-04-12T18:15:43.757Z,17.17
2023-04-12T18:18:11.565Z,17.19
2023-04-12T18:20:39.812Z,17.15
2023-04-12T18:23:07.954Z,17.19
2023-04-12T18:25:35.777Z,17.17
2023-04-12T18:28:03.741Z,17.15
2023-04-12T18:30:31.642Z,17.10
2023-04-12T18:33:00.998Z,17.14
2023-04-12T18:35:30.680Z,17.08
2023-04-12T18:37:58.805Z,17.08
2023-04-12T18:40:27.453Z,17.03
2023-04-12T18:42:55.553Z,16.99
2023-04-12T18:45:23.984Z,16.96
2023-04-12T18:47:52.978Z,16.96
2023-04-12T18:50:21.120Z,16.93
2023-04-12T18:52:49.344Z,16.92
2023-04-12T18:55:18.678Z,16.90
2023-04-12T18:57:47.720Z,16.89
2023-04-12T19:00:19.956Z,16.86
2023-04-12T19:02:48.654Z,16.86
2023-04-12T19:05:17.670Z,16.85
2023-04-12T19:07:45.474Z,16.87
2023-04-12T19:10:14.526Z,16.86
2023-04-12T19:12:46.191Z,16.85
2023-04-12T19:15:19.653Z,16.82
2023-04-12T19:17:51.177Z,16.87
2023-04-12T19:20:20.766Z,16.82
2023-04-12T19:22:54.791Z,16.81
2023-04-12T19:25:32.072Z,16.85
2023-04-12T19:28:09.359Z,16.80
2023-04-12T19:30:40.791Z,16.77
2023-04-12T19:33:18.094Z,16.73
2023-04-12T19:35:51.047Z,16.73
2023-04-12T19:38:28.810Z,16.68
2023-04-12T19:41:02.987Z,16.62
2023-04-12T19:43:33.452Z,16.59
2023-04-12T19:46:07.346Z,16.55
2023-04-12T19:48:37.720Z,16.56
2023-04-12T19:51:13.250Z,16.59
2023-04-12T19:53:46.310Z,16.55
2023-04-12T19:56:21.373Z,16.58
2023-04-12T19:58:53.798Z,16.54
2023-04-12T20:01:31.663Z,16.52
2023-04-12T20:04:19.782Z,16.52
2023-04-12T20:06:50.715Z,16.44
2023-04-12T20:09:28.273Z,16.47
2023-04-12T20:12:03.723Z,16.44
2023-04-12T20:14:37.527Z,16.38
2023-04-12T20:17:10.548Z,16.35
2023-04-12T20:19:44.902Z,16.36
2023-04-12T20:22:16.237Z,16.35
2023-04-12T20:24:51.874Z,16.32
2023-04-12T20:27:26.131Z,16.28
2023-04-12T20:30:00.360Z,16.27
2023-04-12T20:32:35.902Z,16.29
2023-04-12T20:35:12.040Z,16.33
2023-04-12T20:37:47.809Z,16.23
2023-04-12T20:40:19.409Z,16.23
2023-04-12T20:42:54.003Z,16.13
2023-04-12T20:45:31.624Z,16.06
2023-04-12T20:48:05.058Z,16.04
2023-04-12T20:50:42.652Z,16.03
2023-04-12T20:53:37.496Z,15.97
2023-04-12T20:56:17.962Z,15.95
2023-04-12T20:59:02.344Z,15.92
2023-04-12T21:01:35.585Z,15.89
2023-04-12T21:04:06.961Z,15.92
2023-04-12T21:06:40.695Z,15.92
2023-04-12T21:09:10.516Z,15.92
2023-04-12T21:11:41.984Z,15.93
2023-04-12T21:14:36.114Z,15.89
2023-04-12T21:17:07.629Z,15.96
2023-04-12T21:19:42.109Z,15.95
2023-04-12T21:22:10.266Z,15.93
2023-04-12T21:24:38.647Z,15.89
2023-04-12T21:27:11.077Z,15.85
2023-04-12T21:29:41.873Z,15.82
2023-04-12T21:32:12.074Z,15.70
2023-04-12T21:34:41.851Z,15.58
2023-04-12T21:37:10.559Z,15.47
2023-04-12T21:39:39.546Z,15.42
2023-04-12T21:42:08.150Z,15.35
2023-04-12T21:44:42.550Z,15.30
2023-04-12T21:47:09.999Z,15.09
2023-04-12T21:49:48.943Z,14.99
2023-04-12T21:52:25.146Z,14.90
2023-04-12T21:54:52.870Z,14.80
2023-04-12T21:57:20.963Z,14.72
2023-04-12T22:00:23.129Z,14.62
2023-04-12T22:02:51.556Z,14.55
2023-04-12T22:05:19.718Z,14.47
2023-04-12T22:07:48.451Z,14.44
2023-04-12T22:10:16.353Z,14.38
2023-04-12T22:12:51.597Z,14.32
2023-04-12T22:15:23.822Z,14.31
2023-04-12T22:17:51.633Z,14.27
2023-04-12T22:20:19.421Z,14.26
2023-04-12T22:22:47.579Z,14.29
2023-04-12T22:25:15.892Z,14.30
2023-04-12T22:27:46.507Z,14.29
2023-04-12T22:30:15.920Z,14.28
2023-04-12T22:32:43.865Z,14.23
2023-04-12T22:35:11.927Z,14.21
2023-04-12T22:37:41.378Z,14.18
2023-04-12T22:40:14.875Z,14.18
2023-04-12T22:42:49.107Z,14.22
2023-04-12T22:45:17.001Z,14.19
2023-04-12T22:47:49.711Z,14.23
2023-04-12T22:50:17.310Z,14.23
2023-04-12T22:52:45.314Z,14.18
2023-04-12T22:55:14.438Z,14.18
2023-04-12T22:57:50.997Z,14.14
2023-04-12T23:00:19.256Z,14.16
2023-04-12T23:02:47.864Z,14.15
2023-04-12T23:05:16.434Z,14.15
2023-04-12T23:07:44.159Z,14.17
2023-04-12T23:10:12.454Z,14.07
2023-04-12T23:12:40.101Z,14.09
2023-04-12T23:15:10.185Z,14.11
2023-04-12T23:18:08.011Z,14.15
2023-04-12T23:20:36.461Z,14.12
2023-04-12T23:23:04.130Z,14.13
2023-04-12T23:25:41.835Z,14.13
2023-04-12T23:28:14.291Z,14.12
2023-04-12T23:30:49.135Z,14.08
2023-04-12T23:33:18.333Z,14.05
2023-04-12T23:35:46.416Z,14.05
2023-04-12T23:38:15.813Z,14.03
2023-04-12T23:40:43.590Z,14.01
2023-04-12T23:43:14.827Z,14.09
2023-04-12T23:45:42.474Z,14.07
2023-04-12T23:48:10.098Z,14.07
2023-04-12T23:50:38.420Z,14.09
2023-04-12T23:53:05.997Z,14.08
2023-04-12T23:55:33.518Z,14.14
2023-04-12T23:58:01.373Z,14.13
